sensor_id;sensor_type;location;lat;lon;timestamp;pressure;altitude;pressure_sealevel;temperature;humidity
19447;BME280;9862;49.462;11.054;2023-03-22T00:01:58;97861.88;;;14.13;100.00
19447;BME280;9862;49.462;11.054;2023-03-22T00:04:24;97856.19;;;14.10;100.00
19447;BME280;9862;49.462;11.054;2023-03-22T00:06:51;97847.81;;;14.06;100.00
19447;BME280;9862;49.462;11.054;2023-03-22T00:09:17;97848.84;;;14.05;100.00
19447;BME280;9862;49.462;11.054;2023-03-22T00:11:44;97852.25;;;14.00;100.00
19447;BME280;9862;49.462;11.054;2023-03-22T00:14:16;97856.78;;;14.00;100.00
19447;BME280;9862;49.462;11.054;2023-03-22T00:16:43;97866.06;;;13.97;100.00
19447;BME280;9862;49.462;11.054;2023-03-22T00:19:10;97869.00;;;13.96;100.00
19447;BME280;9862;49.462;11.054;2023-03-22T00:21:37;97855.63;;;13.96;100.00
19447;BME280;9862;49.462;11.054;2023-03-22T00:24:04;97866.31;;;13.96;100.00
19447;BME280;9862;49.462;11.054;2023-03-22T00:26:30;97855.63;;;13.96;100.00
19447;BME280;9862;49.462;11.054;2023-03-22T00:28:57;97858.06;;;13.97;100.00
19447;BME280;9862;49.462;11.054;2023-03-22T00:31:25;97856.19;;;13.98;100.00
19447;BME280;9862;49.462;11.054;2023-03-22T00:33:51;97851.44;;;14.00;100.00
19447;BME280;9862;49.462;11.054;2023-03-22T00:36:18;97843.97;;;14.02;100.00
19447;BME280;9862;49.462;11.054;2023-03-22T00:38:44;97837.00;;;14.01;100.00
19447;BME280;9862;49.462;11.054;2023-03-22T00:41:12;97830.47;;;13.97;100.00
19447;BME280;9862;49.462;11.054;2023-03-22T00:43:40;97832.34;;;13.96;100.00
19447;BME280;9862;49.462;11.054;2023-03-22T00:46:08;97833.97;;;13.97;100.00
19447;BME280;9862;49.462;11.054;2023-03-22T00:48:36;97837.47;;;13.98;100.00
19447;BME280;9862;49.462;11.054;2023-03-22T00:51:03;97837.00;;;14.01;100.00
19447;BME280;9862;49.462;11.054;2023-03-22T00:53:30;97829.22;;;13.99;100.00
19447;BME280;9862;49.462;11.054;2023-03-22T00:55:58;97826.19;;;13.96;100.00
19447;BME280;9862;49.462;11.054;2023-03-22T00:58:25;97834.78;;;13.98;100.00
19447;BME280;9862;49.462;11.054;2023-03-22T01:00:51;97835.16;;;13.90;100.00
19447;BME280;9862;49.462;11.054;2023-03-22T01:03:18;97842.72;;;13.93;100.00
19447;BME280;9862;49.462;11.054;2023-03-22T01:05:47;97832.81;;;14.05;100.00
19447;BME280;9862;49.462;11.054;2023-03-22T01:08:14;97845.63;;;13.91;100.00
19447;BME280;9862;49.462;11.054;2023-03-22T01:10:42;97838.75;;;13.84;100.00
19447;BME280;9862;49.462;11.054;2023-03-22T01:13:10;97842.03;;;13.74;100.00
19447;BME280;9862;49.462;11.054;2023-03-22T01:15:37;97837.59;;;13.68;100.00
19447;BME280;9862;49.462;11.054;2023-03-22T01:18:04;97835.16;;;13.66;100.00
19447;BME280;9862;49.462;11.054;2023-03-22T01:20:32;97835.16;;;13.66;100.00
19447;BME280;9862;49.462;11.054;2023-03-22T01:23:00;97831.91;;;13.64;100.00
19447;BME280;9862;49.462;11.054;2023-03-22T01:25:28;97825.63;;;13.59;100.00
19447;BME280;9862;49.462;11.054;2023-03-22T01:27:54;97821.81;;;13.55;100.00
19447;BME280;9862;49.462;11.054;2023-03-22T01:30:21;97823.09;;;13.52;100.00
19447;BME280;9862;49.462;11.054;2023-03-22T01:32:48;97819.81;;;13.50;100.00
19447;BME280;9862;49.462;11.054;2023-03-22T01:35:15;97818.19;;;13.49;100.00
19447;BME280;9862;49.462;11.054;2023-03-22T01:37:41;97813.78;;;13.43;100.00
19447;BME280;9862;49.462;11.054;2023-03-22T01:40:12;97812.16;;;13.42;100.00
19447;BME280;9862;49.462;11.054;2023-03-22T01:42:39;97807.84;;;13.41;100.00
19447;BME280;9862;49.462;11.054;2023-03-22T01:45:39;97814.22;;;13.40;100.00
19447;BME280;9862;49.462;11.054;2023-03-22T01:48:11;97815.84;;;13.41;100.00
19447;BME280;9862;49.462;11.054;2023-03-22T01:50:41;97811.22;;;13.36;100.00
19447;BME280;9862;49.462;11.054;2023-03-22T01:53:11;97809.47;;;13.30;100.00
19447;BME280;9862;49.462;11.054;2023-03-22T01:55:41;97801.22;;;13.32;100.00
19447;BME280;9862;49.462;11.054;2023-03-22T01:58:08;97801.69;;;13.29;100.00
19447;BME280;9862;49.462;11.054;2023-03-22T02:00:34;97800.28;;;13.26;100.00
19447;BME280;9862;49.462;11.054;2023-03-22T02:03:01;97798.91;;;13.24;100.00
19447;BME280;9862;49.462;11.054;2023-03-22T02:05:30;97808.97;;;13.22;100.00
19447;BME280;9862;49.462;11.054;2023-03-22T02:07:56;97798.66;;;13.25;100.00
19447;BME280;9862;49.462;11.054;2023-03-22T02:10:25;97794.69;;;13.28;100.00
19447;BME280;9862;49.462;11.054;2023-03-22T02:13:07;97793.66;;;13.29;100.00
19447;BME280;9862;49.462;11.054;2023-03-22T02:15:41;97799.81;;;13.29;100.00
19447;BME280;9862;49.462;11.054;2023-03-22T02:18:23;97801.22;;;13.32;100.00
19447;BME280;9862;49.462;11.054;2023-03-22T02:27:26;97796.81;;;13.37;100.00
19447;BME280;9862;49.462;11.054;2023-03-22T02:30:18;97797.03;;;13.36;100.00
19447;BME280;9862;49.462;11.054;2023-03-22T02:35:51;97801.69;;;13.29;100.00
19447;BME280;9862;49.462;11.054;2023-03-22T02:41:16;97791.78;;;13.29;100.00
19447;BME280;9862;49.462;11.054;2023-03-22T02:43:57;97782.97;;;13.29;100.00
19447;BME280;9862;49.462;11.054;2023-03-22T02:46:31;97784.00;;;13.28;100.00
19447;BME280;9862;49.462;11.054;2023-03-22T02:49:04;97778.91;;;13.26;100.00
19447;BME280;9862;49.462;11.054;2023-03-22T02:51:39;97782.88;;;13.24;100.00
19447;BME280;9862;49.462;11.054;2023-03-22T02:54:09;97777.53;;;13.24;100.00
19447;BME280;9862;49.462;11.054;2023-03-22T02:56:41;97777.03;;;13.27;100.00
19447;BME280;9862;49.462;11.054;2023-03-22T02:59:11;97777.38;;;13.30;100.00
19447;BME280;9862;49.462;11.054;2023-03-22T03:01:39;97779.63;;;13.33;100.00
19447;BME280;9862;49.462;11.054;2023-03-22T03:04:10;97773.22;;;13.34;100.00
19447;BME280;9862;49.462;11.054;2023-03-22T03:06:42;97766.00;;;13.35;100.00
19447;BME280;9862;49.462;11.054;2023-03-22T03:09:12;97765.44;;;13.33;100.00
19447;BME280;9862;49.462;11.054;2023-03-22T03:11:45;97765.44;;;13.33;100.00
19447;BME280;9862;49.462;11.054;2023-03-22T03:14:21;97775.31;;;13.32;100.00
19447;BME280;9862;49.462;11.054;2023-03-22T03:16:58;97775.75;;;13.29;100.00
19447;BME280;9862;49.462;11.054;2023-03-22T03:19:34;97772.28;;;13.29;100.00
19447;BME280;9862;49.462;11.054;2023-03-22T03:22:14;97771.69;;;13.27;100.00
19447;BME280;9862;49.462;11.054;2023-03-22T03:24:54;97766.03;;;13.23;100.00
19447;BME280;9862;49.462;11.054;2023-03-22T03:27:27;97770.38;;;13.17;100.00
19447;BME280;9862;49.462;11.054;2023-03-22T03:30:00;97770.03;;;13.14;100.00
19447;BME280;9862;49.462;11.054;2023-03-22T03:32:33;97770.28;;;13.12;100.00
19447;BME280;9862;49.462;11.054;2023-03-22T03:35:05;97776.06;;;13.09;100.00
19447;BME280;9862;49.462;11.054;2023-03-22T03:37:35;97769.09;;;13.08;100.00
19447;BME280;9862;49.462;11.054;2023-03-22T03:40:08;97776.78;;;13.05;100.00
19447;BME280;9862;49.462;11.054;2023-03-22T03:42:40;97771.66;;;13.03;100.00
19447;BME280;9862;49.462;11.054;2023-03-22T03:45:09;97778.25;;;13.01;100.00
19447;BME280;9862;49.462;11.054;2023-03-22T03:47:36;97776.63;;;13.00;100.00
19447;BME280;9862;49.462;11.054;2023-03-22T03:50:03;97782.78;;;13.00;100.00
19447;BME280;9862;49.462;11.054;2023-03-22T03:52:30;97774.19;;;12.98;100.00
19447;BME280;9862;49.462;11.054;2023-03-22T03:54:57;97774.78;;;13.00;100.00
19447;BME280;9862;49.462;11.054;2023-03-22T03:57:24;97776.19;;;13.03;100.00
19447;BME280;9862;49.462;11.054;2023-03-22T03:59:52;97776.63;;;13.00;100.00
19447;BME280;9862;49.462;11.054;2023-03-22T04:02:18;97783.84;;;12.99;100.00
19447;BME280;9862;49.462;11.054;2023-03-22T04:04:44;97780.69;;;13.02;100.00
19447;BME280;9862;49.462;11.054;2023-03-22T04:07:11;97780.69;;;13.02;100.00
19447;BME280;9862;49.462;11.054;2023-03-22T04:09:38;97778.97;;;12.96;100.00
19447;BME280;9862;49.462;11.054;2023-03-22T04:12:05;97777.56;;;12.94;100.00
19447;BME280;9862;49.462;11.054;2023-03-22T04:14:33;97782.69;;;12.95;100.00
19447;BME280;9862;49.462;11.054;2023-03-22T04:17:02;97789.50;;;12.91;100.00
19447;BME280;9862;49.462;11.054;2023-03-22T04:19:28;97780.91;;;12.89;100.00
19447;BME280;9862;49.462;11.054;2023-03-22T04:21:55;97787.16;;;12.83;100.00
19447;BME280;9862;49.462;11.054;2023-03-22T04:24:22;97787.63;;;12.80;100.00
19447;BME280;9862;49.462;11.054;2023-03-22T04:26:48;97795.53;;;12.75;100.00
19447;BME280;9862;49.462;11.054;2023-03-22T04:29:16;97792.25;;;12.73;100.00
19447;BME280;9862;49.462;11.054;2023-03-22T04:31:43;97789.00;;;12.71;100.00
19447;BME280;9862;49.462;11.054;2023-03-22T04:34:11;97790.50;;;12.67;100.00
19447;BME280;9862;49.462;11.054;2023-03-22T04:36:38;97784.59;;;12.65;100.00
19447;BME280;9862;49.462;11.054;2023-03-22T04:39:06;97792.72;;;12.70;100.00
19447;BME280;9862;49.462;11.054;2023-03-22T04:41:34;97799.22;;;12.74;100.00
19447;BME280;9862;49.462;11.054;2023-03-22T04:44:02;97780.31;;;12.75;100.00
19447;BME280;9862;49.462;11.054;2023-03-22T04:46:29;97786.81;;;12.79;100.00
19447;BME280;9862;49.462;11.054;2023-03-22T04:48:56;97782.88;;;12.82;100.00
19447;BME280;9862;49.462;11.054;2023-03-22T04:51:24;97786.59;;;12.81;100.00
19447;BME280;9862;49.462;11.054;2023-03-22T04:53:51;97782.75;;;12.77;100.00
19447;BME280;9862;49.462;11.054;2023-03-22T04:56:18;97790.63;;;12.72;100.00
19447;BME280;9862;49.462;11.054;2023-03-22T04:58:45;97782.72;;;12.65;100.00
19447;BME280;9862;49.462;11.054;2023-03-22T05:01:14;97787.91;;;12.60;100.00
19447;BME280;9862;49.462;11.054;2023-03-22T05:03:40;97788.00;;;12.53;100.00
19447;BME280;9862;49.462;11.054;2023-03-22T05:06:08;97792.19;;;12.49;100.00
19447;BME280;9862;49.462;11.054;2023-03-22T05:08:36;97786.03;;;12.49;100.00
19447;BME280;9862;49.462;11.054;2023-03-22T05:11:05;97789.63;;;12.54;100.00
19447;BME280;9862;49.462;11.054;2023-03-22T05:13:32;97790.25;;;12.56;100.00
19447;BME280;9862;49.462;11.054;2023-03-22T05:15:59;97783.28;;;12.55;100.00
19447;BME280;9862;49.462;11.054;2023-03-22T05:18:26;97782.22;;;12.56;100.00
19447;BME280;9862;49.462;11.054;2023-03-22T05:20:54;97780.97;;;12.59;100.00
19447;BME280;9862;49.462;11.054;2023-03-22T05:23:22;97779.41;;;12.51;100.00
19447;BME280;9862;49.462;11.054;2023-03-22T05:25:51;97783.38;;;12.49;100.00
19447;BME280;9862;49.462;11.054;2023-03-22T05:28:19;97776.63;;;12.46;100.00
19447;BME280;9862;49.462;11.054;2023-03-22T05:30:47;97772.78;;;12.42;100.00
19447;BME280;9862;49.462;11.054;2023-03-22T05:33:13;97774.28;;;12.38;100.00
19447;BME280;9862;49.462;11.054;2023-03-22T05:35:41;97782.50;;;12.37;100.00
19447;BME280;9862;49.462;11.054;2023-03-22T05:38:08;97775.16;;;12.32;100.00
19447;BME280;9862;49.462;11.054;2023-03-22T05:40:35;97773.69;;;12.36;100.00
19447;BME280;9862;49.462;11.054;2023-03-22T05:43:03;97776.78;;;12.33;100.00
19447;BME280;9862;49.462;11.054;2023-03-22T05:45:30;97766.13;;;12.33;100.00
19447;BME280;9862;49.462;11.054;2023-03-22T05:47:57;97771.03;;;12.36;100.00
19447;BME280;9862;49.462;11.054;2023-03-22T05:50:23;97764.41;;;12.39;100.00
19447;BME280;9862;49.462;11.054;2023-03-22T05:52:50;97771.72;;;12.43;100.00
19447;BME280;9862;49.462;11.054;2023-03-22T05:55:18;97765.56;;;12.43;100.00
19447;BME280;9862;49.462;11.054;2023-03-22T05:57:45;97756.09;;;12.47;100.00
19447;BME280;9862;49.462;11.054;2023-03-22T06:00:17;97761.31;;;12.53;100.00
19447;BME280;9862;49.462;11.054;2023-03-22T06:02:46;97765.59;;;12.54;100.00
19447;BME280;9862;49.462;11.054;2023-03-22T06:05:14;97758.88;;;12.52;100.00
19447;BME280;9862;49.462;11.054;2023-03-22T06:07:40;97756.44;;;12.50;100.00
19447;BME280;9862;49.462;11.054;2023-03-22T06:10:11;97753.19;;;12.48;100.00
19447;BME280;9862;49.462;11.054;2023-03-22T06:12:37;97757.59;;;12.54;100.00
19447;BME280;9862;49.462;11.054;2023-03-22T06:15:05;97762.94;;;12.54;100.00
19447;BME280;9862;49.462;11.054;2023-03-22T06:17:33;97756.78;;;12.54;100.00
19447;BME280;9862;49.462;11.054;2023-03-22T06:20:00;97755.06;;;12.59;100.00
19447;BME280;9862;49.462;11.054;2023-03-22T06:22:33;97750.09;;;12.63;100.00
19447;BME280;9862;49.462;11.054;2023-03-22T06:25:00;97744.88;;;12.68;100.00
19447;BME280;9862;49.462;11.054;2023-03-22T06:27:27;97749.41;;;12.68;100.00
19447;BME280;9862;49.462;11.054;2023-03-22T06:29:53;97754.28;;;12.71;100.00
19447;BME280;9862;49.462;11.054;2023-03-22T06:32:20;97752.81;;;12.75;100.00
19447;BME280;9862;49.462;11.054;2023-03-22T06:34:49;97757.22;;;12.81;100.00
19447;BME280;9862;49.462;11.054;2023-03-22T06:37:15;97747.34;;;12.81;100.00
19447;BME280;9862;49.462;11.054;2023-03-22T06:39:42;97753.88;;;12.85;100.00
19447;BME280;9862;49.462;11.054;2023-03-22T06:42:08;97751.19;;;12.85;100.00
19447;BME280;9862;49.462;11.054;2023-03-22T06:44:35;97752.13;;;12.91;100.00
19447;BME280;9862;49.462;11.054;2023-03-22T06:47:02;97748.53;;;12.85;100.00
19447;BME280;9862;49.462;11.054;2023-03-22T06:49:29;97756.88;;;12.89;100.00
19447;BME280;9862;49.462;11.054;2023-03-22T06:51:57;97748.88;;;12.89;100.00
19447;BME280;9862;49.462;11.054;2023-03-22T06:54:24;97751.31;;;13.02;100.00
19447;BME280;9862;49.462;11.054;2023-03-22T06:56:50;97755.50;;;13.10;100.00
19447;BME280;9862;49.462;11.054;2023-03-22T06:59:17;97761.66;;;13.10;100.00
19447;BME280;9862;49.462;11.054;2023-03-22T07:01:43;97752.25;;;13.08;100.00
19447;BME280;9862;49.462;11.054;2023-03-22T07:04:10;97757.13;;;13.11;100.00
19447;BME280;9862;49.462;11.054;2023-03-22T07:06:36;97755.25;;;13.00;100.00
19447;BME280;9862;49.462;11.054;2023-03-22T07:09:04;97758.63;;;12.95;100.00
19447;BME280;9862;49.462;11.054;2023-03-22T07:11:31;97760.69;;;12.93;100.00
19447;BME280;9862;49.462;11.054;2023-03-22T07:13:57;97760.03;;;12.98;100.00
19447;BME280;9862;49.462;11.054;2023-03-22T07:16:24;97757.94;;;13.00;100.00
19447;BME280;9862;49.462;11.054;2023-03-22T07:18:51;97759.88;;;13.23;100.00
19447;BME280;9862;49.462;11.054;2023-03-22T07:21:17;97761.47;;;13.24;100.00
19447;BME280;9862;49.462;11.054;2023-03-22T07:23:44;97763.28;;;13.11;100.00
19447;BME280;9862;49.462;11.054;2023-03-22T07:26:12;97761.56;;;13.05;100.00
19447;BME280;9862;49.462;11.054;2023-03-22T07:28:39;97763.84;;;13.02;100.00
19447;BME280;9862;49.462;11.054;2023-03-22T07:31:09;97766.50;;;12.90;100.00
19447;BME280;9862;49.462;11.054;2023-03-22T07:33:37;97766.19;;;12.98;100.00
19447;BME280;9862;49.462;11.054;2023-03-22T07:36:04;97764.81;;;13.07;100.00
19447;BME280;9862;49.462;11.054;2023-03-22T07:38:31;97757.34;;;12.98;100.00
19447;BME280;9862;49.462;11.054;2023-03-22T07:40:58;97760.38;;;13.01;100.00
19447;BME280;9862;49.462;11.054;2023-03-22T07:43:26;97753.88;;;13.09;100.00
19447;BME280;9862;49.462;11.054;2023-03-22T07:45:53;97761.78;;;13.15;100.00
19447;BME280;9862;49.462;11.054;2023-03-22T07:48:20;97757.84;;;13.18;100.00
19447;BME280;9862;49.462;11.054;2023-03-22T07:50:47;97757.41;;;13.21;100.00
19447;BME280;9862;49.462;11.054;2023-03-22T07:53:14;97753.47;;;13.35;100.00
19447;BME280;9862;49.462;11.054;2023-03-22T07:55:40;97751.94;;;13.51;100.00
19447;BME280;9862;49.462;11.054;2023-03-22T07:58:07;97741.69;;;13.60;100.00
19447;BME280;9862;49.462;11.054;2023-03-22T08:00:35;97741.56;;;13.66;100.00
19447;BME280;9862;49.462;11.054;2023-03-22T08:03:02;97740.94;;;13.88;100.00
19447;BME280;9862;49.462;11.054;2023-03-22T08:05:28;97737.00;;;13.90;100.00
19447;BME280;9862;49.462;11.054;2023-03-22T08:07:55;97749.47;;;14.13;100.00
19447;BME280;9862;49.462;11.054;2023-03-22T08:10:21;97729.25;;;14.06;100.00
19447;BME280;9862;49.462;11.054;2023-03-22T08:12:48;97741.00;;;14.04;100.00
19447;BME280;9862;49.462;11.054;2023-03-22T08:15:15;97741.13;;;13.98;100.00
19447;BME280;9862;49.462;11.054;2023-03-22T08:17:42;97737.66;;;13.97;100.00
19447;BME280;9862;49.462;11.054;2023-03-22T08:20:10;97746.50;;;13.98;100.00
19447;BME280;9862;49.462;11.054;2023-03-22T08:22:37;97734.72;;;14.11;100.00
19447;BME280;9862;49.462;11.054;2023-03-22T08:25:04;97738.78;;;14.13;100.00
19447;BME280;9862;49.462;11.054;2023-03-22T08:27:31;97744.81;;;14.20;100.00
19447;BME280;9862;49.462;11.054;2023-03-22T08:29:58;97747.66;;;14.30;100.00
19447;BME280;9862;49.462;11.054;2023-03-22T08:32:25;97743.38;;;14.29;100.00
19447;BME280;9862;49.462;11.054;2023-03-22T08:34:53;97743.94;;;14.31;100.00
19447;BME280;9862;49.462;11.054;2023-03-22T08:37:19;97736.03;;;14.25;100.00
19447;BME280;9862;49.462;11.054;2023-03-22T08:39:46;97743.94;;;14.31;100.00
19447;BME280;9862;49.462;11.054;2023-03-22T08:42:13;97739.72;;;14.36;100.00
19447;BME280;9862;49.462;11.054;2023-03-22T08:44:39;97738.91;;;14.35;100.00
19447;BME280;9862;49.462;11.054;2023-03-22T08:47:06;97742.25;;;14.42;100.00
19447;BME280;9862;49.462;11.054;2023-03-22T08:49:32;97742.97;;;14.49;100.00
19447;BME280;9862;49.462;11.054;2023-03-22T08:52:01;97741.16;;;14.55;100.00
19447;BME280;9862;49.462;11.054;2023-03-22T08:54:27;97736.47;;;14.62;100.00
19447;BME280;9862;49.462;11.054;2023-03-22T08:56:57;97728.06;;;14.70;100.00
19447;BME280;9862;49.462;11.054;2023-03-22T08:59:25;97732.91;;;14.73;100.00
19447;BME280;9862;49.462;11.054;2023-03-22T09:01:52;97736.59;;;14.67;100.00
19447;BME280;9862;49.462;11.054;2023-03-22T09:04:18;97733.91;;;14.67;100.00
19447;BME280;9862;49.462;11.054;2023-03-22T09:06:45;97730.16;;;14.68;100.00
19447;BME280;9862;49.462;11.054;2023-03-22T09:09:13;97729.50;;;14.61;100.00
19447;BME280;9862;49.462;11.054;2023-03-22T09:11:40;97729.19;;;14.74;100.00
19447;BME280;9862;49.462;11.054;2023-03-22T09:14:07;97727.25;;;14.70;100.00
19447;BME280;9862;49.462;11.054;2023-03-22T09:16:34;97728.63;;;14.72;100.00
19447;BME280;9862;49.462;11.054;2023-03-22T09:19:01;97720.91;;;14.76;100.00
19447;BME280;9862;49.462;11.054;2023-03-22T09:21:28;97720.75;;;14.99;100.00
19447;BME280;9862;49.462;11.054;2023-03-22T09:23:55;97720.00;;;15.04;100.00
19447;BME280;9862;49.462;11.054;2023-03-22T09:26:23;97715.16;;;15.01;100.00
19447;BME280;9862;49.462;11.054;2023-03-22T09:28:51;97716.69;;;14.97;100.00
19447;BME280;9862;49.462;11.054;2023-03-22T09:31:18;97716.28;;;15.05;100.00
19447;BME280;9862;49.462;11.054;2023-03-22T09:33:44;97722.03;;;15.13;100.00
19447;BME280;9862;49.462;11.054;2023-03-22T09:36:11;97713.75;;;15.15;100.00
19447;BME280;9862;49.462;11.054;2023-03-22T09:38:38;97717.63;;;15.24;100.00
19447;BME280;9862;49.462;11.054;2023-03-22T09:41:07;97722.84;;;15.14;100.00
19447;BME280;9862;49.462;11.054;2023-03-22T09:43:41;97717.50;;;14.97;100.00
19447;BME280;9862;49.462;11.054;2023-03-22T09:46:13;97718.63;;;14.84;100.00
19447;BME280;9862;49.462;11.054;2023-03-22T09:48:42;97718.78;;;14.95;100.00
19447;BME280;9862;49.462;11.054;2023-03-22T09:51:22;97712.47;;;15.01;100.00
19447;BME280;9862;49.462;11.054;2023-03-22T09:53:52;97713.13;;;15.08;100.00
19447;BME280;9862;49.462;11.054;2023-03-22T09:56:21;97709.53;;;15.19;100.00
19447;BME280;9862;49.462;11.054;2023-03-22T09:58:53;97704.06;;;15.14;100.00
19447;BME280;9862;49.462;11.054;2023-03-22T10:01:29;97706.75;;;15.14;100.00
19447;BME280;9862;49.462;11.054;2023-03-22T10:04:13;97700.94;;;15.17;100.00
19447;BME280;9862;49.462;11.054;2023-03-22T10:06:46;97712.13;;;15.14;100.00
19447;BME280;9862;49.462;11.054;2023-03-22T10:09:19;97691.88;;;15.23;100.00
19447;BME280;9862;49.462;11.054;2023-03-22T10:11:51;97690.50;;;15.37;100.00
19447;BME280;9862;49.462;11.054;2023-03-22T10:14:28;97683.78;;;15.57;100.00
19447;BME280;9862;49.462;11.054;2023-03-22T10:16:57;97673.22;;;15.50;100.00
19447;BME280;9862;49.462;11.054;2023-03-22T10:19:31;97669.00;;;15.54;100.00
19447;BME280;9862;49.462;11.054;2023-03-22T10:22:00;97674.56;;;15.53;100.00
19447;BME280;9862;49.462;11.054;2023-03-22T10:24:30;97679.13;;;15.52;100.00
19447;BME280;9862;49.462;11.054;2023-03-22T10:26:58;97665.88;;;15.62;100.00
19447;BME280;9862;49.462;11.054;2023-03-22T10:29:29;97670.81;;;15.70;100.00
19447;BME280;9862;49.462;11.054;2023-03-22T10:32:09;97665.19;;;15.72;100.00
19447;BME280;9862;49.462;11.054;2023-03-22T10:34:38;97660.28;;;15.86;100.00
19447;BME280;9862;49.462;11.054;2023-03-22T10:37:06;97671.31;;;15.89;100.00
19447;BME280;9862;49.462;11.054;2023-03-22T10:39:37;97669.28;;;15.74;100.00
19447;BME280;9862;49.462;11.054;2023-03-22T10:42:07;97669.56;;;15.78;100.00
19447;BME280;9862;49.462;11.054;2023-03-22T10:44:46;97665.81;;;15.79;100.00
19447;BME280;9862;49.462;11.054;2023-03-22T10:47:15;97655.19;;;15.89;100.00
19447;BME280;9862;49.462;11.054;2023-03-22T10:49:44;97663.91;;;16.01;100.00
19447;BME280;9862;49.462;11.054;2023-03-22T10:52:21;97653.69;;;15.98;100.00
19447;BME280;9862;49.462;11.054;2023-03-22T10:54:51;97651.38;;;16.07;100.00
19447;BME280;9862;49.462;11.054;2023-03-22T10:57:20;97648.31;;;15.98;100.00
19447;BME280;9862;49.462;11.054;2023-03-22T10:59:49;97654.66;;;15.87;100.00
19447;BME280;9862;49.462;11.054;2023-03-22T11:02:18;97645.00;;;15.91;100.00
19447;BME280;9862;49.462;11.054;2023-03-22T11:04:49;97643.59;;;16.11;100.00
19447;BME280;9862;49.462;11.054;2023-03-22T11:07:29;97640.00;;;16.27;100.00
19447;BME280;9862;49.462;11.054;2023-03-22T11:10:11;97628.03;;;16.40;100.00
19447;BME280;9862;49.462;11.054;2023-03-22T11:12:48;97634.09;;;16.57;100.00
19447;BME280;9862;49.462;11.054;2023-03-22T11:15:23;97628.56;;;16.69;98.57
19447;BME280;9862;49.462;11.054;2023-03-22T11:17:51;97630.66;;;16.62;95.72
19447;BME280;9862;49.462;11.054;2023-03-22T11:20:19;97628.28;;;16.38;97.80
19447;BME280;9862;49.462;11.054;2023-03-22T11:22:47;97640.66;;;16.39;99.72
19447;BME280;9862;49.462;11.054;2023-03-22T11:25:16;97637.22;;;16.44;99.18
19447;BME280;9862;49.462;11.054;2023-03-22T11:27:50;97632.72;;;16.54;99.74
19447;BME280;9862;49.462;11.054;2023-03-22T11:30:22;97634.41;;;16.60;99.64
19447;BME280;9862;49.462;11.054;2023-03-22T11:32:59;97629.50;;;16.52;98.74
19447;BME280;9862;49.462;11.054;2023-03-22T11:35:29;97636.03;;;16.62;98.88
19447;BME280;9862;49.462;11.054;2023-03-22T11:37:56;97624.16;;;16.57;98.71
19447;BME280;9862;49.462;11.054;2023-03-22T11:40:27;97616.63;;;16.54;99.07
19447;BME280;9862;49.462;11.054;2023-03-22T11:43:02;97619.38;;;16.65;98.88
19447;BME280;9862;49.462;11.054;2023-03-22T11:45:41;97613.56;;;16.78;98.24
19447;BME280;9862;49.462;11.054;2023-03-22T11:48:12;97608.19;;;16.78;97.46
19447;BME280;9862;49.462;11.054;2023-03-22T11:50:42;97606.56;;;16.72;96.93
19447;BME280;9862;49.462;11.054;2023-03-22T11:53:12;97600.72;;;16.85;94.44
19447;BME280;9862;49.462;11.054;2023-03-22T11:55:41;97596.22;;;16.91;95.84
19447;BME280;9862;49.462;11.054;2023-03-22T11:58:22;97598.22;;;17.15;91.01
19447;BME280;9862;49.462;11.054;2023-03-22T12:00:52;97595.03;;;17.19;88.04
19447;BME280;9862;49.462;11.054;2023-03-22T12:03:23;97594.19;;;17.13;84.75
19447;BME280;9862;49.462;11.054;2023-03-22T12:05:51;97597.94;;;17.12;86.28
19447;BME280;9862;49.462;11.054;2023-03-22T12:08:22;97598.75;;;17.12;87.41
19447;BME280;9862;49.462;11.054;2023-03-22T12:10:54;97592.84;;;17.15;80.81
19447;BME280;9862;49.462;11.054;2023-03-22T12:13:26;97584.28;;;17.24;79.41
19447;BME280;9862;49.462;11.054;2023-03-22T12:15:57;97587.53;;;17.36;80.24
19447;BME280;9862;49.462;11.054;2023-03-22T12:18:31;97577.31;;;17.33;77.52
19447;BME280;9862;49.462;11.054;2023-03-22T12:21:00;97578.41;;;17.37;81.03
19447;BME280;9862;49.462;11.054;2023-03-22T12:23:28;97587.50;;;17.21;82.98
19447;BME280;9862;49.462;11.054;2023-03-22T12:25:59;97585.34;;;17.23;83.74
19447;BME280;9862;49.462;11.054;2023-03-22T12:28:29;97581.84;;;17.27;81.62
19447;BME280;9862;49.462;11.054;2023-03-22T12:30:59;97572.72;;;17.23;82.77
19447;BME280;9862;49.462;11.054;2023-03-22T12:33:29;97569.75;;;17.25;83.72
19447;BME280;9862;49.462;11.054;2023-03-22T12:35:58;97571.94;;;17.33;81.75
19447;BME280;9862;49.462;11.054;2023-03-22T12:38:29;97560.91;;;17.34;78.21
19447;BME280;9862;49.462;11.054;2023-03-22T12:41:02;97569.25;;;17.28;74.42
19447;BME280;9862;49.462;11.054;2023-03-22T12:43:38;97564.44;;;17.40;74.59
19447;BME280;9862;49.462;11.054;2023-03-22T12:46:12;97560.69;;;17.41;67.30
19447;BME280;9862;49.462;11.054;2023-03-22T12:48:42;97557.94;;;17.31;67.57
19447;BME280;9862;49.462;11.054;2023-03-22T12:51:12;97552.63;;;17.51;69.93
19447;BME280;9862;49.462;11.054;2023-03-22T12:53:41;97549.69;;;17.63;66.78
19447;BME280;9862;49.462;11.054;2023-03-22T12:56:10;97553.19;;;17.58;68.19
19447;BME280;9862;49.462;11.054;2023-03-22T12:58:37;97546.75;;;17.64;68.67
19447;BME280;9862;49.462;11.054;2023-03-22T13:01:19;97544.63;;;17.66;67.88
19447;BME280;9862;49.462;11.054;2023-03-22T13:03:48;97544.63;;;17.66;69.00
19447;BME280;9862;49.462;11.054;2023-03-22T13:06:31;97542.47;;;17.68;68.39
19447;BME280;9862;49.462;11.054;2023-03-22T13:09:16;97538.94;;;17.63;70.39
19447;BME280;9862;49.462;11.054;2023-03-22T13:11:44;97541.97;;;17.77;71.37
19447;BME280;9862;49.462;11.054;2023-03-22T13:14:52;97534.16;;;17.85;70.63
19447;BME280;9862;49.462;11.054;2023-03-22T13:17:05;97537.66;;;17.81;70.87